Time;durP1;ratioP1;P1;durP2;ratioP2;P2;SDS_P1;SDS_P2;PMS_P1;PMS_P2;Temp;Humidity;BMP_temperature;BMP_pressure;BME280_temperature;BME280_humidity;BME280_pressure;Samples;Min_cycle;Max_cycle;Signal;HPM_P1;HPM_P2
2023/07/27 00:00:27;;;;;;;4.13;1.60;;;11.90;99.90;;;;;;5058155;28;20032;-40
2023/07/27 00:02:53;;;;;;;1.63;1.52;;;11.80;99.90;;;;;;5052963;28;20047;-41
2023/07/27 00:05:18;;;;;;;1.33;1.23;;;11.80;99.90;;;;;;5050373;28;20040;-39
2023/07/27 00:07:44;;;;;;;2.42;1.60;;;11.70;99.90;;;;;;5057906;28;20032;-41
2023/07/27 00:10:09;;;;;;;1.55;1.45;;;11.70;99.90;;;;;;5058683;28;20024;-40
2023/07/27 00:12:35;;;;;;;1.98;1.38;;;11.70;99.90;;;;;;5067543;28;20028;-39
2023/07/27 00:15:01;;;;;;;2.03;1.52;;;11.50;99.90;;;;;;5063374;28;20024;-40
2023/07/27 00:17:26;;;;;;;1.63;1.50;;;11.50;99.90;;;;;;5065125;28;21731;-40
2023/07/27 00:19:52;;;;;;;2.33;1.30;;;11.40;99.90;;;;;;5062975;28;20067;-40
2023/07/27 00:22:17;;;;;;;2.20;1.65;;;11.30;99.90;;;;;;5061742;28;20393;-39
2023/07/27 00:24:43;;;;;;;3.35;1.40;;;11.20;99.90;;;;;;5066516;28;20036;-38
2023/07/27 00:27:09;;;;;;;1.80;1.58;;;11.10;99.90;;;;;;5064545;28;20525;-39
2023/07/27 00:29:34;;;;;;;1.50;1.40;;;11.10;99.90;;;;;;5060258;28;20024;-39
2023/07/27 00:32:00;;;;;;;1.60;1.50;;;11.10;99.90;;;;;;5066024;28;20082;-40
2023/07/27 00:34:25;;;;;;;2.35;1.23;;;11.20;99.90;;;;;;5066726;28;20025;-38
2023/07/27 00:36:51;;;;;;;1.67;1.58;;;11.20;99.90;;;;;;5064612;28;20049;-37
2023/07/27 00:39:16;;;;;;;2.45;1.40;;;11.20;99.90;;;;;;5066002;28;20028;-41
2023/07/27 00:41:43;;;;;;;2.05;1.85;;;11.20;99.90;;;;;;5062520;28;20030;-40
2023/07/27 00:44:09;;;;;;;2.45;1.85;;;11.20;99.90;;;;;;5061388;28;20111;-41
2023/07/27 00:46:36;;;;;;;2.78;1.58;;;11.20;99.90;;;;;;5062503;28;20422;-37
2023/07/27 00:49:05;;;;;;;3.53;2.03;;;11.20;99.90;;;;;;5062714;28;21282;-36
2023/07/27 00:51:35;;;;;;;1.52;1.40;;;11.20;99.90;;;;;;5064329;28;20028;-41
2023/07/27 00:54:03;;;;;;;2.03;1.30;;;11.20;99.90;;;;;;5064402;28;20499;-36
2023/07/27 00:56:30;;;;;;;2.83;1.67;;;11.20;99.90;;;;;;5064812;28;20041;-41
2023/07/27 00:58:59;;;;;;;1.10;1.10;;;11.10;99.90;;;;;;5061284;28;20024;-41
2023/07/27 01:01:25;;;;;;;3.85;1.85;;;11.00;99.90;;;;;;5064298;28;20095;-40
2023/07/27 01:03:51;;;;;;;2.40;1.50;;;11.00;99.90;;;;;;5065705;28;20039;-38
2023/07/27 01:06:17;;;;;;;3.45;1.45;;;10.90;99.90;;;;;;5062831;28;20043;-39
2023/07/27 01:08:43;;;;;;;2.05;1.67;;;10.90;99.90;;;;;;5061998;28;20359;-32
2023/07/27 01:11:18;;;;;;;1.90;1.77;;;10.90;99.90;;;;;;5064299;28;20162;-33
2023/07/27 01:14:00;;;;;;;2.33;1.40;;;10.80;99.90;;;;;;5063226;28;20013;-33
2023/07/27 01:16:33;;;;;;;1.50;1.40;;;10.90;99.90;;;;;;5061568;28;20036;-34
2023/07/27 01:19:49;;;;;;;1.60;1.50;;;10.80;99.90;;;;;;5064126;28;20374;-33
2023/07/27 01:22:42;;;;;;;2.63;1.85;;;10.70;99.90;;;;;;5053679;28;20052;-32
2023/07/27 01:25:30;;;;;;;1.52;1.42;;;10.70;99.90;;;;;;5062655;28;20534;-34
2023/07/27 01:28:19;;;;;;;1.50;1.40;;;10.80;99.90;;;;;;5064061;28;20096;-33
2023/07/27 01:31:09;;;;;;;1.48;1.38;;;10.80;99.90;;;;;;5060118;28;20036;-32
2023/07/27 01:33:40;;;;;;;2.90;1.95;;;10.70;99.90;;;;;;5064877;28;20016;-34
2023/07/27 01:36:25;;;;;;;1.90;1.50;;;10.80;99.90;;;;;;5062564;28;20531;-32
2023/07/27 01:38:53;;;;;;;3.90;1.50;;;10.70;99.90;;;;;;5067896;28;20039;-40
2023/07/27 01:41:20;;;;;;;1.92;1.40;;;10.60;99.90;;;;;;5061285;28;20032;-39
2023/07/27 01:43:47;;;;;;;2.38;1.70;;;10.60;99.90;;;;;;5067260;28;20030;-41
2023/07/27 01:46:15;;;;;;;1.95;1.65;;;10.60;99.90;;;;;;5063942;28;21306;-41
2023/07/27 01:48:42;;;;;;;1.55;1.45;;;10.60;99.90;;;;;;5064613;28;20025;-35
2023/07/27 01:51:10;;;;;;;1.83;1.38;;;10.60;99.90;;;;;;5067018;28;20028;-41
2023/07/27 01:53:37;;;;;;;2.38;1.75;;;10.60;99.90;;;;;;5061696;28;20029;-37
2023/07/27 01:56:04;;;;;;;1.55;1.45;;;10.60;99.90;;;;;;5061797;28;20028;-41
2023/07/27 01:58:31;;;;;;;1.77;1.67;;;10.50;99.90;;;;;;5067864;28;20091;-39
2023/07/27 02:00:57;;;;;;;1.50;1.40;;;10.50;99.90;;;;;;5062451;28;20660;-40
2023/07/27 02:03:23;;;;;;;1.40;1.30;;;10.40;99.90;;;;;;5063293;28;20052;-41
2023/07/27 02:05:49;;;;;;;1.70;1.50;;;10.40;99.90;;;;;;5064304;28;20533;-40
2023/07/27 02:08:14;;;;;;;2.72;1.42;;;10.40;99.90;;;;;;5066815;28;20119;-39
2023/07/27 02:10:41;;;;;;;1.50;1.40;;;10.50;99.90;;;;;;5064202;28;20036;-41
2023/07/27 02:13:15;;;;;;;3.00;1.60;;;10.40;99.90;;;;;;5062386;28;20028;-42
2023/07/27 02:15:48;;;;;;;2.30;1.55;;;10.30;99.90;;;;;;5063291;28;20074;-38
2023/07/27 02:18:20;;;;;;;1.55;1.45;;;10.30;99.90;;;;;;5061841;28;20107;-32
2023/07/27 02:20:48;;;;;;;1.73;1.27;;;10.30;99.90;;;;;;5066865;28;20035;-31
2023/07/27 02:23:15;;;;;;;2.50;1.30;;;10.20;99.90;;;;;;5067265;28;20025;-31
2023/07/27 02:25:41;;;;;;;1.70;1.55;;;10.20;99.90;;;;;;5070473;28;20028;-32
2023/07/27 02:28:12;;;;;;;1.52;1.40;;;10.20;99.90;;;;;;5065914;28;20105;-32
2023/07/27 02:30:38;;;;;;;1.50;1.25;;;10.10;99.90;;;;;;5064992;28;20032;-31
2023/07/27 02:33:04;;;;;;;1.65;1.50;;;10.10;99.90;;;;;;5068452;28;20393;-31
2023/07/27 02:35:30;;;;;;;2.05;1.50;;;10.10;99.90;;;;;;5064815;28;20028;-32
2023/07/27 02:37:55;;;;;;;1.60;1.45;;;10.10;99.90;;;;;;5069424;28;20034;-32
2023/07/27 02:40:21;;;;;;;3.40;1.48;;;10.00;99.90;;;;;;5060745;28;20032;-32
2023/07/27 02:42:47;;;;;;;1.95;1.67;;;10.10;99.90;;;;;;5066595;28;20032;-32
2023/07/27 02:45:12;;;;;;;2.17;1.60;;;10.10;99.90;;;;;;5065612;28;20033;-34
2023/07/27 02:47:38;;;;;;;2.50;1.80;;;10.00;99.90;;;;;;5061789;28;20626;-35
2023/07/27 02:50:04;;;;;;;2.78;1.77;;;10.10;99.90;;;;;;5064104;28;20055;-31
2023/07/27 02:52:29;;;;;;;2.80;1.90;;;10.00;99.90;;;;;;5067100;28;20499;-33
2023/07/27 02:54:55;;;;;;;2.58;1.80;;;10.00;99.90;;;;;;5062026;28;20036;-31
2023/07/27 02:57:20;;;;;;;4.38;1.65;;;10.00;99.90;;;;;;5068580;28;20394;-33
2023/07/27 02:59:46;;;;;;;1.98;1.77;;;10.00;99.90;;;;;;5069876;28;20032;-33
2023/07/27 03:02:11;;;;;;;3.03;1.77;;;10.00;99.90;;;;;;5066653;28;20040;-31
2023/07/27 03:04:37;;;;;;;1.63;1.52;;;10.00;99.90;;;;;;5084472;28;20393;-31
2023/07/27 03:07:03;;;;;;;2.75;1.60;;;10.00;99.90;;;;;;5068724;28;20044;-32
2023/07/27 03:09:29;;;;;;;1.60;1.50;;;10.00;99.90;;;;;;5070005;28;20070;-31
2023/07/27 03:11:55;;;;;;;1.77;1.38;;;9.90;99.90;;;;;;5065937;28;20023;-31
2023/07/27 03:14:20;;;;;;;1.98;1.58;;;9.90;99.90;;;;;;5064319;28;20476;-31
2023/07/27 03:16:46;;;;;;;1.50;1.40;;;9.80;99.90;;;;;;5072003;28;20515;-31
2023/07/27 03:19:11;;;;;;;3.53;1.63;;;9.80;99.90;;;;;;5065463;28;20036;-31
2023/07/27 03:21:37;;;;;;;2.42;1.50;;;9.80;99.90;;;;;;5069032;28;20059;-31
2023/07/27 03:24:03;;;;;;;2.50;1.45;;;9.80;99.90;;;;;;5079907;28;20052;-31
2023/07/27 03:26:28;;;;;;;2.03;1.50;;;9.80;99.90;;;;;;5068074;28;20101;-31
2023/07/27 03:28:54;;;;;;;2.10;1.55;;;9.80;99.90;;;;;;5065720;28;20429;-34
2023/07/27 03:31:26;;;;;;;2.42;1.60;;;9.80;99.90;;;;;;5069566;28;20027;-35
2023/07/27 03:33:52;;;;;;;3.92;1.50;;;9.80;99.90;;;;;;5063646;28;20056;-34
2023/07/27 03:36:19;;;;;;;3.60;1.60;;;9.80;99.90;;;;;;5067874;28;20064;-33
2023/07/27 03:38:45;;;;;;;2.33;1.58;;;9.80;99.90;;;;;;5062811;28;20099;-33
2023/07/27 03:41:12;;;;;;;2.38;1.55;;;9.70;99.90;;;;;;5066717;28;20025;-36
2023/07/27 03:43:37;;;;;;;1.90;1.70;;;9.70;99.90;;;;;;5050483;28;20043;-34
2023/07/27 03:46:03;;;;;;;1.73;1.45;;;9.70;99.90;;;;;;5051259;28;20040;-35
2023/07/27 03:48:29;;;;;;;4.55;1.58;;;9.70;99.90;;;;;;5050590;28;20024;-35
2023/07/27 03:50:54;;;;;;;1.83;1.52;;;9.70;99.90;;;;;;5053547;28;20029;-32
2023/07/27 03:53:20;;;;;;;2.00;1.52;;;9.70;99.90;;;;;;5063224;28;20029;-37
2023/07/27 03:55:46;;;;;;;2.33;1.48;;;9.70;99.90;;;;;;5060199;28;20041;-32
2023/07/27 03:58:11;;;;;;;2.25;1.65;;;9.60;99.90;;;;;;5055596;28;20064;-40
2023/07/27 04:00:37;;;;;;;1.20;1.20;;;9.60;99.90;;;;;;5047986;28;21374;-38
2023/07/27 04:03:03;;;;;;;2.22;1.63;;;9.60;99.90;;;;;;5049684;28;20051;-40
2023/07/27 04:05:31;;;;;;;1.45;1.35;;;9.60;99.90;;;;;;5050471;28;20040;-40
2023/07/27 04:07:56;;;;;;;1.85;1.58;;;9.60;99.90;;;;;;5050639;28;20765;-35
2023/07/27 04:10:22;;;;;;;2.85;1.70;;;9.60;99.90;;;;;;5060207;28;20040;-40
2023/07/27 04:12:47;;;;;;;2.15;1.77;;;9.60;99.90;;;;;;5067661;28;20025;-46
2023/07/27 04:15:13;;;;;;;2.80;2.00;;;9.60;99.90;;;;;;5052688;28;20402;-37
2023/07/27 04:17:39;;;;;;;2.15;1.70;;;9.60;99.90;;;;;;5051406;28;20102;-38
2023/07/27 04:20:05;;;;;;;2.67;2.00;;;9.60;99.90;;;;;;5048807;28;20082;-41
2023/07/27 04:22:30;;;;;;;2.00;1.80;;;9.60;99.90;;;;;;5050272;28;20465;-37
2023/07/27 04:24:56;;;;;;;2.30;1.88;;;9.70;99.90;;;;;;5047925;28;20137;-38
2023/07/27 04:27:22;;;;;;;3.80;1.52;;;9.70;99.90;;;;;;5058294;28;20067;-40
2023/07/27 04:29:47;;;;;;;4.28;1.92;;;9.70;99.90;;;;;;5067021;28;20039;-41
2023/07/27 04:32:13;;;;;;;2.60;1.90;;;9.80;99.90;;;;;;5065835;28;20072;-41
2023/07/27 04:34:38;;;;;;;4.18;1.80;;;9.80;99.90;;;;;;5067972;28;20087;-40
2023/07/27 04:37:04;;;;;;;3.67;1.92;;;9.90;99.90;;;;;;5062609;28;20020;-40
2023/07/27 04:39:30;;;;;;;3.45;1.90;;;10.00;99.90;;;;;;5070900;28;20553;-36
2023/07/27 04:41:56;;;;;;;1.90;1.40;;;10.10;99.90;;;;;;5067403;28;20107;-40
2023/07/27 04:44:22;;;;;;;1.98;1.77;;;10.20;99.90;;;;;;5064818;28;20545;-39
2023/07/27 04:46:47;;;;;;;2.53;1.60;;;10.30;99.90;;;;;;5070757;28;20037;-39
2023/07/27 04:49:13;;;;;;;2.55;1.65;;;10.40;99.90;;;;;;5064308;28;20025;-41
2023/07/27 04:51:39;;;;;;;3.05;1.95;;;10.50;99.90;;;;;;5063872;28;20024;-40
2023/07/27 04:54:04;;;;;;;2.20;1.77;;;10.70;99.90;;;;;;5060997;28;20053;-42
2023/07/27 04:56:30;;;;;;;1.80;1.70;;;10.80;99.90;;;;;;5066624;28;20072;-39
2023/07/27 04:58:56;;;;;;;2.25;1.77;;;11.00;99.90;;;;;;5061166;28;20021;-41
2023/07/27 05:01:22;;;;;;;2.95;1.70;;;11.10;99.90;;;;;;5051049;28;20045;-37
2023/07/27 05:03:47;;;;;;;2.67;1.88;;;11.10;99.90;;;;;;5063710;28;20046;-39
2023/07/27 05:06:13;;;;;;;1.77;1.50;;;11.20;99.90;;;;;;5048887;28;20032;-41
2023/07/27 05:08:39;;;;;;;4.57;1.80;;;11.20;99.90;;;;;;5050309;28;20032;-38
2023/07/27 05:11:07;;;;;;;2.42;2.08;;;11.30;99.90;;;;;;5049974;28;20024;-40
2023/07/27 05:13:34;;;;;;;2.20;2.00;;;11.30;99.90;;;;;;5051857;28;20106;-39
2023/07/27 05:16:00;;;;;;;2.67;2.00;;;11.30;99.90;;;;;;5052218;28;20029;-40
2023/07/27 05:18:26;;;;;;;2.53;2.13;;;11.40;99.90;;;;;;5047102;28;20058;-34
2023/07/27 05:20:53;;;;;;;4.85;2.17;;;11.40;99.90;;;;;;5047111;28;20040;-37
2023/07/27 05:23:19;;;;;;;3.63;2.15;;;11.50;99.90;;;;;;5060630;28;20636;-37
2023/07/27 05:25:46;;;;;;;2.90;2.17;;;11.60;99.90;;;;;;5060939;28;20028;-42
2023/07/27 05:28:12;;;;;;;2.30;2.10;;;11.60;99.90;;;;;;5077377;28;20557;-38
2023/07/27 05:30:37;;;;;;;3.13;2.00;;;11.60;99.90;;;;;;5063292;28;20108;-41
2023/07/27 05:33:07;;;;;;;2.10;1.83;;;11.60;99.90;;;;;;5065750;28;20471;-38
2023/07/27 05:35:32;;;;;;;3.42;1.90;;;11.70;99.90;;;;;;5087367;28;20034;-41
2023/07/27 05:37:58;;;;;;;2.05;1.85;;;11.70;99.90;;;;;;5059744;28;20469;-41
2023/07/27 05:40:23;;;;;;;2.78;1.95;;;11.80;99.90;;;;;;5067370;28;20446;-39
2023/07/27 05:42:49;;;;;;;2.13;1.90;;;11.80;99.90;;;;;;5073383;28;20600;-42
2023/07/27 05:45:15;;;;;;;3.00;1.88;;;11.90;99.90;;;;;;5066228;28;20036;-42
2023/07/27 05:47:40;;;;;;;2.30;2.10;;;11.90;99.90;;;;;;5064175;28;20086;-40
2023/07/27 05:50:06;;;;;;;4.32;2.00;;;12.00;99.90;;;;;;5061182;28;20024;-36
2023/07/27 05:52:32;;;;;;;3.25;2.38;;;12.10;99.90;;;;;;5067843;28;20037;-40
2023/07/27 05:54:58;;;;;;;2.85;2.17;;;12.10;99.90;;;;;;5061928;28;20348;-42
2023/07/27 05:57:24;;;;;;;2.78;2.22;;;12.20;99.90;;;;;;5064552;28;20032;-40
2023/07/27 05:59:50;;;;;;;3.45;2.30;;;12.30;99.90;;;;;;5058695;28;20166;-39
2023/07/27 06:02:15;;;;;;;4.50;2.30;;;12.40;99.90;;;;;;5058595;28;20571;-41
2023/07/27 06:04:41;;;;;;;3.13;2.10;;;12.50;99.90;;;;;;5072303;28;20032;-41
2023/07/27 06:07:07;;;;;;;3.08;2.28;;;12.50;99.90;;;;;;5057206;28;20032;-41
2023/07/27 06:09:36;;;;;;;2.40;1.75;;;12.60;99.90;;;;;;5060114;28;20081;-39
2023/07/27 06:12:09;;;;;;;2.25;2.05;;;12.60;99.90;;;;;;5066099;28;20020;-41
2023/07/27 06:14:35;;;;;;;2.17;1.80;;;12.70;99.90;;;;;;5077373;28;20111;-41
2023/07/27 06:17:00;;;;;;;2.22;2.03;;;12.80;99.90;;;;;;5069754;28;20107;-36
2023/07/27 06:19:26;;;;;;;2.70;2.20;;;13.00;99.90;;;;;;5063288;28;20025;-41
2023/07/27 06:21:52;;;;;;;2.55;1.95;;;13.10;99.90;;;;;;5071465;28;20099;-39
2023/07/27 06:24:17;;;;;;;2.38;2.17;;;13.20;99.90;;;;;;5069629;28;20056;-40
2023/07/27 06:26:43;;;;;;;2.40;2.10;;;13.40;99.90;;;;;;5065471;28;20422;-40
2023/07/27 06:29:09;;;;;;;2.72;2.10;;;13.50;99.90;;;;;;5071294;28;20028;-39
2023/07/27 06:31:34;;;;;;;5.10;2.10;;;13.60;99.90;;;;;;5078336;28;20608;-41
2023/07/27 06:34:00;;;;;;;3.05;2.30;;;13.60;99.90;;;;;;5067701;28;20107;-41
2023/07/27 06:36:25;;;;;;;3.95;2.63;;;13.60;99.90;;;;;;5064983;28;20744;-41
2023/07/27 06:38:51;;;;;;;3.67;1.73;;;13.80;99.90;;;;;;5069448;28;20103;-39
2023/07/27 06:41:18;;;;;;;2.67;2.08;;;13.90;99.90;;;;;;5060665;28;20030;-40
2023/07/27 06:43:44;;;;;;;2.28;1.95;;;14.00;99.90;;;;;;5071179;28;20071;-41
2023/07/27 06:46:10;;;;;;;2.50;1.88;;;14.20;99.90;;;;;;5067863;28;20029;-41
2023/07/27 06:48:35;;;;;;;1.92;1.70;;;14.30;99.90;;;;;;5068626;28;20048;-39
2023/07/27 06:51:01;;;;;;;2.75;1.73;;;14.50;99.90;;;;;;5068052;28;20025;-38
2023/07/27 06:53:26;;;;;;;3.75;1.65;;;14.60;99.90;;;;;;5068260;28;20024;-40
2023/07/27 06:55:52;;;;;;;2.22;1.52;;;14.70;99.90;;;;;;5065577;28;20517;-41
2023/07/27 06:58:18;;;;;;;2.35;1.60;;;14.80;99.90;;;;;;5060404;28;20078;-41
2023/07/27 07:00:44;;;;;;;2.15;1.70;;;14.80;99.90;;;;;;5065094;28;20028;-42
2023/07/27 07:03:10;;;;;;;2.55;1.75;;;14.80;99.90;;;;;;5068913;28;20505;-42
2023/07/27 07:05:35;;;;;;;2.28;1.70;;;14.90;99.90;;;;;;5083195;28;20064;-39
2023/07/27 07:08:01;;;;;;;2.67;1.55;;;14.90;99.90;;;;;;5075672;28;20131;-39
2023/07/27 07:10:27;;;;;;;2.45;1.77;;;15.00;99.90;;;;;;5070188;28;20144;-40
2023/07/27 07:12:53;;;;;;;1.80;1.70;;;15.00;99.90;;;;;;5064615;28;20451;-40
2023/07/27 07:15:18;;;;;;;8.05;2.10;;;15.10;99.90;;;;;;5054804;28;20119;-38
2023/07/27 07:17:47;;;;;;;3.47;1.60;;;15.30;99.90;;;;;;5065880;28;20025;-41
2023/07/27 07:20:14;;;;;;;2.55;1.67;;;15.30;99.90;;;;;;5057009;28;20028;-37
2023/07/27 07:22:39;;;;;;;1.60;1.40;;;15.50;99.90;;;;;;5067349;28;20713;-40
2023/07/27 07:25:05;;;;;;;1.85;1.63;;;15.50;99.90;;;;;;5065974;28;20028;-40
2023/07/27 07:27:31;;;;;;;3.42;1.85;;;15.60;99.90;;;;;;5063289;28;20056;-37
2023/07/27 07:29:56;;;;;;;2.65;1.60;;;15.70;99.90;;;;;;5068294;28;20482;-41
2023/07/27 07:32:22;;;;;;;2.25;1.70;;;15.80;99.90;;;;;;5067207;28;20071;-39
2023/07/27 07:34:50;;;;;;;3.13;2.22;;;15.90;99.90;;;;;;5067422;28;20023;-41
2023/07/27 07:37:16;;;;;;;2.05;1.70;;;16.10;99.90;;;;;;5066532;28;20440;-40
2023/07/27 07:39:41;;;;;;;6.43;1.83;;;16.40;99.90;;;;;;5065431;28;20033;-39
2023/07/27 07:42:07;;;;;;;2.00;1.70;;;16.60;99.90;;;;;;5071264;28;20047;-41
2023/07/27 07:44:32;;;;;;;1.67;1.50;;;16.80;99.90;;;;;;5068111;28;20078;-39
2023/07/27 07:46:58;;;;;;;2.13;1.60;;;17.00;99.90;;;;;;5073181;28;20486;-41
2023/07/27 07:49:27;;;;;;;1.98;1.55;;;17.10;99.90;;;;;;5066311;28;20025;-40
2023/07/27 07:51:52;;;;;;;2.17;1.52;;;17.30;99.90;;;;;;5066015;28;20024;-40
2023/07/27 07:54:18;;;;;;;1.98;1.63;;;17.30;99.90;;;;;;5064569;28;20563;-41
2023/07/27 07:56:44;;;;;;;2.28;1.77;;;17.50;99.90;;;;;;5063671;28;20516;-41
2023/07/27 07:59:09;;;;;;;2.92;1.40;;;17.40;99.90;;;;;;5066780;28;20107;-35
2023/07/27 08:01:35;;;;;;;3.30;1.55;;;17.40;99.90;;;;;;5065863;28;20724;-41
2023/07/27 08:04:00;;;;;;;1.45;1.35;;;17.40;99.90;;;;;;5072934;28;20046;-39
2023/07/27 08:06:26;;;;;;;1.60;1.50;;;17.50;99.90;;;;;;5066553;28;20562;-40
2023/07/27 08:08:52;;;;;;;1.63;1.50;;;17.60;99.90;;;;;;5066592;28;20123;-38
2023/07/27 08:11:17;;;;;;;2.88;1.80;;;17.60;99.90;;;;;;5067253;28;20020;-41
2023/07/27 08:13:43;;;;;;;4.57;1.63;;;17.60;99.90;;;;;;5067056;28;20032;-42
2023/07/27 08:16:09;;;;;;;2.75;1.77;;;17.70;99.90;;;;;;5070042;28;20029;-43
2023/07/27 08:18:35;;;;;;;1.60;1.45;;;17.80;99.90;;;;;;5067538;28;20036;-41
2023/07/27 08:21:03;;;;;;;1.80;1.58;;;18.00;99.90;;;;;;5069352;28;20471;-39
2023/07/27 08:23:29;;;;;;;2.00;1.83;;;18.10;99.90;;;;;;5068755;28;20397;-39
2023/07/27 08:25:58;;;;;;;2.05;1.67;;;18.20;99.90;;;;;;5064109;28;20024;-39
2023/07/27 08:28:24;;;;;;;1.83;1.73;;;18.20;99.90;;;;;;5057337;28;20115;-40
2023/07/27 08:30:50;;;;;;;1.80;1.65;;;18.20;99.90;;;;;;5064693;28;20051;-38
2023/07/27 08:33:16;;;;;;;3.38;2.00;;;18.20;99.90;;;;;;5071715;28;20428;-37
2023/07/27 08:35:42;;;;;;;2.78;1.63;;;18.20;99.90;;;;;;5067134;28;20449;-40
2023/07/27 08:38:08;;;;;;;2.05;1.55;;;18.20;99.90;;;;;;5068174;28;20025;-41
2023/07/27 08:40:34;;;;;;;2.55;2.13;;;18.20;99.90;;;;;;5064601;28;20043;-39
2023/07/27 08:43:07;;;;;;;2.08;1.80;;;18.20;99.90;;;;;;5063807;28;20083;-39
2023/07/27 08:45:33;;;;;;;2.00;1.80;;;18.30;99.90;;;;;;5064623;28;20036;-41
2023/07/27 08:47:59;;;;;;;2.22;1.58;;;18.40;99.90;;;;;;5064178;28;20493;-38
2023/07/27 08:50:26;;;;;;;2.40;1.63;;;18.50;99.90;;;;;;5066226;28;20020;-41
2023/07/27 08:52:51;;;;;;;2.00;1.80;;;18.50;99.90;;;;;;5063925;28;20029;-41
2023/07/27 08:55:17;;;;;;;1.80;1.50;;;18.50;99.90;;;;;;5073923;28;20107;-40
2023/07/27 08:57:43;;;;;;;2.55;1.60;;;18.50;99.90;;;;;;5068914;28;20033;-40
2023/07/27 09:00:10;;;;;;;2.25;1.50;;;18.50;99.90;;;;;;5062040;28;20033;-41
2023/07/27 09:02:36;;;;;;;2.60;1.77;;;18.40;99.90;;;;;;5062137;28;20111;-39
2023/07/27 09:05:01;;;;;;;1.75;1.50;;;18.40;99.90;;;;;;5064155;28;20512;-41
2023/07/27 09:07:27;;;;;;;3.40;1.70;;;18.30;99.90;;;;;;5061686;28;20052;-40
2023/07/27 09:09:54;;;;;;;2.17;1.75;;;18.40;99.90;;;;;;5065490;28;20683;-41
2023/07/27 09:12:22;;;;;;;2.42;1.90;;;18.40;99.90;;;;;;5062796;28;20093;-40
2023/07/27 09:14:48;;;;;;;2.63;1.80;;;18.50;99.90;;;;;;5061586;28;20036;-40
2023/07/27 09:17:14;;;;;;;1.52;1.42;;;18.60;99.90;;;;;;5066330;28;20037;-40
2023/07/27 09:19:43;;;;;;;2.22;1.73;;;18.60;99.90;;;;;;5064658;28;20505;-39
2023/07/27 09:22:11;;;;;;;2.25;1.70;;;18.70;99.90;;;;;;5064327;28;20704;-40
2023/07/27 09:24:36;;;;;;;2.67;1.70;;;18.80;99.90;;;;;;5070148;28;20116;-39
2023/07/27 09:27:08;;;;;;;3.08;1.90;;;18.90;99.90;;;;;;5064757;28;20508;-40
2023/07/27 09:29:34;;;;;;;1.98;1.77;;;18.90;99.90;;;;;;5067768;28;20024;-38
2023/07/27 09:32:00;;;;;;;1.88;1.55;;;18.90;99.90;;;;;;5066557;28;20482;-40
2023/07/27 09:34:31;;;;;;;1.80;1.60;;;18.90;99.90;;;;;;5066234;28;20024;-40
2023/07/27 09:37:01;;;;;;;2.38;1.77;;;18.90;99.90;;;;;;5057318;28;20029;-38
2023/07/27 09:39:28;;;;;;;1.92;1.58;;;18.80;99.90;;;;;;5065562;28;20032;-39
2023/07/27 09:41:54;;;;;;;2.35;1.90;;;18.90;99.90;;;;;;5062001;28;20032;-40
2023/07/27 09:44:21;;;;;;;5.13;1.85;;;19.00;99.90;;;;;;5065004;28;20482;-37
2023/07/27 09:46:47;;;;;;;3.10;1.70;;;19.10;99.90;;;;;;5072059;28;20029;-40
2023/07/27 09:49:17;;;;;;;2.42;1.80;;;19.30;99.90;;;;;;5068100;28;20635;-41
2023/07/27 09:51:43;;;;;;;1.95;1.33;;;19.40;99.90;;;;;;5066680;28;20048;-40
2023/07/27 09:54:11;;;;;;;2.72;1.63;;;19.40;99.90;;;;;;5069916;28;20040;-41
2023/07/27 09:56:37;;;;;;;2.00;1.80;;;19.50;99.90;;;;;;5059879;28;20024;-41
2023/07/27 09:59:04;;;;;;;2.22;1.60;;;19.60;99.90;;;;;;5068854;28;20063;-39
2023/07/27 10:01:30;;;;;;;2.93;1.60;;;19.70;99.90;;;;;;5062147;28;20695;-40
2023/07/27 10:03:59;;;;;;;3.42;1.70;;;19.80;99.90;;;;;;5073482;28;20031;-39
2023/07/27 10:06:29;;;;;;;4.60;1.52;;;19.80;99.90;;;;;;5065829;28;20021;-40
2023/07/27 10:08:55;;;;;;;1.88;1.58;;;19.80;99.90;;;;;;5065291;28;20518;-39
2023/07/27 10:11:51;;;;;;;3.05;1.63;;;19.80;99.90;;;;;;5067156;28;20368;-41
2023/07/27 10:14:18;;;;;;;2.95;1.67;;;19.90;99.90;;;;;;5064311;28;20032;-38
2023/07/27 10:17:06;;;;;;;2.88;1.70;;;20.00;99.90;;;;;;5068914;28;20032;-38
2023/07/27 10:19:46;;;;;;;1.67;1.40;;;20.10;99.90;;;;;;5061589;28;20595;-36
2023/07/27 10:22:17;;;;;;;1.95;1.50;;;20.10;99.90;;;;;;5066037;28;20037;-40
2023/07/27 10:24:48;;;;;;;2.15;1.80;;;20.00;99.90;;;;;;5064842;28;20036;-40
2023/07/27 10:27:14;;;;;;;2.60;1.60;;;19.80;99.90;;;;;;5060682;28;20032;-39
2023/07/27 10:29:46;;;;;;;2.28;1.65;;;19.90;99.90;;;;;;5065940;28;20021;-39
2023/07/27 10:32:12;;;;;;;4.38;1.65;;;19.80;99.90;;;;;;5060062;28;20301;-42
2023/07/27 10:34:39;;;;;;;2.03;1.60;;;19.80;99.90;;;;;;5064080;28;20512;-40
2023/07/27 10:37:05;;;;;;;1.95;1.67;;;19.80;99.90;;;;;;5063365;28;20031;-41
2023/07/27 10:39:32;;;;;;;3.53;2.00;;;20.00;99.90;;;;;;5061279;28;20032;-40
2023/07/27 10:42:00;;;;;;;2.30;1.60;;;20.00;99.90;;;;;;5064699;28;20032;-40
2023/07/27 10:44:39;;;;;;;1.95;1.50;;;20.10;99.90;;;;;;5062920;28;20032;-40
2023/07/27 10:47:11;;;;;;;1.70;1.60;;;20.20;99.90;;;;;;5065794;28;20103;-39
2023/07/27 10:49:44;;;;;;;2.33;1.60;;;20.30;99.90;;;;;;5064657;28;20189;-41
2023/07/27 10:52:14;;;;;;;1.90;1.65;;;20.20;99.90;;;;;;5058481;28;20103;-38
2023/07/27 10:54:41;;;;;;;1.90;1.60;;;20.20;99.90;;;;;;5061421;28;20051;-40
2023/07/27 10:57:09;;;;;;;2.42;1.80;;;20.20;99.90;;;;;;5060830;28;20503;-41
2023/07/27 10:59:40;;;;;;;2.08;1.70;;;20.20;99.90;;;;;;5064884;28;20032;-39
2023/07/27 11:02:23;;;;;;;1.98;1.60;;;20.10;99.90;;;;;;5064540;28;20503;-39
2023/07/27 11:04:51;;;;;;;3.10;1.80;;;20.00;99.90;;;;;;5067665;28;20119;-39
2023/07/27 11:07:33;;;;;;;3.58;1.73;;;19.90;99.90;;;;;;5063837;28;20040;-40
2023/07/27 11:10:06;;;;;;;2.55;1.73;;;19.70;99.90;;;;;;5064424;28;20036;-39
2023/07/27 11:12:44;;;;;;;1.58;1.48;;;19.50;99.90;;;;;;5068472;28;20648;-40
2023/07/27 11:15:26;;;;;;;4.00;1.90;;;19.50;99.90;;;;;;5066750;28;20028;-39
2023/07/27 11:17:54;;;;;;;2.22;1.85;;;19.30;99.90;;;;;;5063549;28;20036;-38
2023/07/27 11:20:23;;;;;;;4.15;1.85;;;19.30;99.90;;;;;;5067979;28;20577;-36
2023/07/27 11:22:51;;;;;;;2.70;1.70;;;19.30;99.90;;;;;;5068291;28;20318;-40
2023/07/27 11:25:17;;;;;;;2.47;1.80;;;19.40;99.90;;;;;;5068928;28;20401;-41
2023/07/27 11:27:42;;;;;;;3.45;1.75;;;19.60;99.90;;;;;;5070002;28;20036;-39
2023/07/27 11:30:12;;;;;;;1.58;1.48;;;19.80;99.90;;;;;;5072255;28;20478;-40
2023/07/27 11:32:38;;;;;;;1.95;1.75;;;19.80;99.90;;;;;;5067982;28;20132;-40
2023/07/27 11:35:04;;;;;;;2.88;1.58;;;19.80;99.90;;;;;;5067420;28;20040;-39
2023/07/27 11:37:31;;;;;;;1.92;1.63;;;19.80;99.90;;;;;;5063490;28;20033;-38
2023/07/27 11:39:57;;;;;;;2.60;1.63;;;19.90;99.90;;;;;;5064657;28;20102;-38
2023/07/27 11:42:36;;;;;;;3.03;1.70;;;20.10;99.90;;;;;;5069544;28;20044;-41
2023/07/27 11:45:03;;;;;;;2.65;1.60;;;20.40;99.90;;;;;;5072071;28;20111;-40
2023/07/27 11:47:39;;;;;;;2.53;1.80;;;20.60;99.90;;;;;;5069244;28;20086;-37
2023/07/27 11:50:06;;;;;;;2.58;1.67;;;20.80;99.90;;;;;;5066086;28;20032;-39
2023/07/27 11:52:35;;;;;;;2.33;1.63;;;21.00;99.90;;;;;;5070378;28;20033;-39
2023/07/27 11:55:01;;;;;;;2.05;1.65;;;21.20;99.90;;;;;;5064921;28;20502;-38
2023/07/27 11:57:27;;;;;;;2.15;1.80;;;21.50;99.90;;;;;;5068107;28;20060;-41
2023/07/27 12:00:12;;;;;;;2.30;1.60;;;21.60;99.90;;;;;;5066695;28;20028;-39
2023/07/27 12:02:38;;;;;;;1.90;1.52;;;21.50;99.90;;;;;;5068760;28;20041;-41
2023/07/27 12:05:04;;;;;;;1.77;1.67;;;21.60;99.90;;;;;;5071050;28;20763;-40
2023/07/27 12:07:33;;;;;;;3.35;1.70;;;21.50;99.90;;;;;;5066857;28;20040;-39
2023/07/27 12:09:59;;;;;;;2.35;1.52;;;21.70;99.90;;;;;;5070646;28;20024;-32
2023/07/27 12:12:25;;;;;;;1.77;1.60;;;22.00;99.90;;;;;;5069346;28;20032;-33
2023/07/27 12:14:54;;;;;;;1.88;1.40;;;22.10;99.90;;;;;;5069515;28;20413;-35
2023/07/27 12:17:23;;;;;;;1.63;1.40;;;22.00;99.90;;;;;;5082304;28;20547;-33
2023/07/27 12:19:48;;;;;;;1.95;1.70;;;21.90;99.90;;;;;;5064163;28;20060;-33
2023/07/27 12:22:14;;;;;;;2.20;1.60;;;21.80;99.90;;;;;;5065396;28;20078;-33
2023/07/27 12:24:46;;;;;;;1.95;1.50;;;21.60;99.90;;;;;;5065961;28;20474;-34
2023/07/27 12:27:11;;;;;;;1.75;1.45;;;21.60;99.90;;;;;;5078945;28;20031;-32
2023/07/27 12:29:37;;;;;;;1.83;1.50;;;21.60;99.90;;;;;;5062110;28;20108;-35
2023/07/27 12:32:04;;;;;;;1.60;1.50;;;21.70;99.90;;;;;;5066974;28;20186;-33
2023/07/27 12:34:31;;;;;;;1.98;1.60;;;21.70;99.90;;;;;;5062353;28;20029;-32
2023/07/27 12:36:56;;;;;;;3.33;1.95;;;21.80;99.90;;;;;;5078942;28;20058;-34
2023/07/27 12:39:22;;;;;;;4.55;1.50;;;21.80;99.90;;;;;;5069319;28;20064;-35
2023/07/27 12:41:48;;;;;;;3.08;1.55;;;21.80;99.90;;;;;;5070467;28;20510;-33
2023/07/27 12:44:14;;;;;;;1.58;1.48;;;21.70;99.90;;;;;;5077962;28;20024;-36
2023/07/27 12:46:40;;;;;;;2.35;1.40;;;21.60;99.90;;;;;;5069768;28;20028;-33
2023/07/27 12:49:06;;;;;;;2.55;1.30;;;21.50;99.90;;;;;;5065274;28;20619;-39